createdAt,value
2022-10-18T00:01:29.765Z,5.43
2022-10-18T00:04:16.515Z,4.87
2022-10-18T00:07:03.375Z,6.03
2022-10-18T00:09:50.211Z,5.20
2022-10-18T00:12:37.617Z,5.00
2022-10-18T00:15:26.124Z,5.90
2022-10-18T00:18:13.164Z,5.43
2022-10-18T00:21:01.359Z,5.37
2022-10-18T00:23:48.452Z,4.73
2022-10-18T00:26:35.463Z,5.03
2022-10-18T00:29:22.519Z,5.50
2022-10-18T00:32:12.009Z,4.40
2022-10-18T00:34:59.172Z,5.27
2022-10-18T00:37:46.221Z,4.97
2022-10-18T00:40:33.333Z,5.37
2022-10-18T00:43:20.480Z,4.83
2022-10-18T00:46:07.775Z,5.77
2022-10-18T00:48:57.181Z,5.13
2022-10-18T00:51:45.308Z,4.70
2022-10-18T00:54:34.379Z,4.53
2022-10-18T00:57:21.410Z,5.27
2022-10-18T01:00:10.030Z,4.90
2022-10-18T01:02:57.155Z,5.53
2022-10-18T01:05:47.228Z,4.90
2022-10-18T01:08:45.246Z,6.23
2022-10-18T01:11:49.983Z,4.33
2022-10-18T01:14:41.881Z,4.60
2022-10-18T01:17:31.292Z,4.93
2022-10-18T01:20:39.845Z,4.60
2022-10-18T01:23:35.352Z,3.73
2022-10-18T01:26:29.209Z,4.80
2022-10-18T01:29:22.071Z,4.10
2022-10-18T01:32:13.525Z,5.00
2022-10-18T01:35:09.423Z,4.40
2022-10-18T01:37:57.916Z,4.50
2022-10-18T01:40:47.229Z,4.30
2022-10-18T01:43:35.392Z,4.53
2022-10-18T01:46:24.025Z,4.20
2022-10-18T01:49:12.367Z,4.30
2022-10-18T01:51:59.458Z,3.90
2022-10-18T01:54:49.956Z,4.00
2022-10-18T01:57:39.235Z,4.23
2022-10-18T02:00:30.426Z,3.50
2022-10-18T02:03:18.937Z,4.20
2022-10-18T02:06:08.581Z,3.90
2022-10-18T02:08:58.717Z,3.90
2022-10-18T02:11:46.833Z,4.53
2022-10-18T02:14:53.791Z,3.90
2022-10-18T02:17:41.636Z,3.53
2022-10-18T02:20:30.082Z,3.43
2022-10-18T02:23:19.986Z,3.77
2022-10-18T02:26:07.233Z,4.20
2022-10-18T02:28:54.245Z,4.47
2022-10-18T02:31:45.382Z,4.00
2022-10-18T02:34:33.847Z,4.43
2022-10-18T02:37:21.741Z,3.60
2022-10-18T02:40:11.923Z,4.13
2022-10-18T02:43:00.314Z,3.50
2022-10-18T02:45:47.644Z,3.90
2022-10-18T02:48:34.640Z,3.77
2022-10-18T02:51:21.710Z,4.40
2022-10-18T02:54:09.365Z,3.40
2022-10-18T02:56:57.370Z,3.60
2022-10-18T02:59:44.622Z,4.20
2022-10-18T03:02:31.860Z,4.10
2022-10-18T03:05:19.092Z,4.17
2022-10-18T03:08:06.469Z,3.70
2022-10-18T03:10:53.837Z,4.17
2022-10-18T03:13:41.927Z,4.17
2022-10-18T03:16:29.103Z,3.63
2022-10-18T03:19:16.031Z,3.50
2022-10-18T03:22:03.201Z,3.53
2022-10-18T03:24:50.240Z,4.43
2022-10-18T03:27:37.055Z,4.23
2022-10-18T03:30:25.319Z,3.70
2022-10-18T03:33:12.372Z,4.13
2022-10-18T03:35:59.467Z,4.23
2022-10-18T03:38:46.097Z,3.93
2022-10-18T03:41:33.324Z,3.70
2022-10-18T03:44:20.521Z,4.03
2022-10-18T03:47:08.679Z,3.83
2022-10-18T03:49:57.208Z,11.23
2022-10-18T03:52:44.540Z,8.77
2022-10-18T03:55:31.709Z,5.00
2022-10-18T03:58:18.691Z,4.83
2022-10-18T04:01:05.912Z,5.17
2022-10-18T04:03:54.293Z,4.77
2022-10-18T04:06:41.261Z,5.40
2022-10-18T04:09:28.486Z,4.20
2022-10-18T04:12:15.598Z,4.40
2022-10-18T04:15:02.719Z,5.40
2022-10-18T04:17:49.785Z,9.53
2022-10-18T04:20:38.250Z,5.60
2022-10-18T04:23:25.065Z,6.17
2022-10-18T04:26:12.102Z,4.63
2022-10-18T04:28:59.256Z,4.97
2022-10-18T04:31:46.420Z,4.30
2022-10-18T04:34:33.410Z,4.70
2022-10-18T04:37:21.835Z,5.00
2022-10-18T04:40:09.597Z,5.07
2022-10-18T04:42:56.343Z,5.10
2022-10-18T04:45:43.361Z,5.47
2022-10-18T04:48:30.494Z,5.33
2022-10-18T04:51:17.559Z,5.10
2022-10-18T04:54:06.093Z,4.57
2022-10-18T04:56:53.343Z,5.20
2022-10-18T04:59:40.581Z,4.80
2022-10-18T05:02:27.533Z,4.67
2022-10-18T05:05:14.700Z,4.73
2022-10-18T05:08:01.793Z,4.60
2022-10-18T05:10:50.203Z,4.77
2022-10-18T05:13:38.224Z,5.23
2022-10-18T05:16:25.380Z,4.53
2022-10-18T05:19:12.704Z,5.07
2022-10-18T05:21:59.760Z,4.50
2022-10-18T05:24:46.720Z,4.93
2022-10-18T05:27:35.052Z,5.07
2022-10-18T05:30:22.469Z,8.13
2022-10-18T05:33:09.611Z,5.23
2022-10-18T05:35:56.484Z,4.73
2022-10-18T05:38:44.014Z,4.77
2022-10-18T05:41:31.144Z,4.40
2022-10-18T05:44:19.449Z,5.00
2022-10-18T05:47:06.567Z,5.03
2022-10-18T05:49:53.626Z,5.07
2022-10-18T05:52:40.603Z,4.70
2022-10-18T05:55:27.648Z,4.70
2022-10-18T05:58:14.901Z,4.97
2022-10-18T06:01:03.736Z,5.00
2022-10-18T06:03:50.488Z,4.93
2022-10-18T06:06:38.057Z,5.30
2022-10-18T06:09:25.972Z,4.83
2022-10-18T06:12:12.905Z,5.60
2022-10-18T06:14:59.908Z,4.90
2022-10-18T06:17:48.168Z,5.37
2022-10-18T06:20:34.957Z,6.50
2022-10-18T06:23:21.869Z,5.43
2022-10-18T06:26:09.958Z,5.70
2022-10-18T06:28:56.789Z,6.17
2022-10-18T06:31:44.001Z,5.87
2022-10-18T06:34:32.592Z,5.70
2022-10-18T06:37:19.521Z,6.50
2022-10-18T06:40:07.779Z,6.37
2022-10-18T06:43:05.765Z,6.50
2022-10-18T06:45:58.139Z,6.67
2022-10-18T06:48:45.232Z,6.67
2022-10-18T06:51:33.607Z,6.60
2022-10-18T06:54:20.629Z,6.17
2022-10-18T06:57:07.686Z,6.63
2022-10-18T06:59:54.806Z,6.50
2022-10-18T07:02:42.233Z,6.77
2022-10-18T07:05:29.812Z,6.30
2022-10-18T07:08:19.323Z,6.77
2022-10-18T07:11:06.990Z,6.50
2022-10-18T07:13:55.512Z,6.13
2022-10-18T07:16:42.940Z,6.30
2022-10-18T07:19:30.114Z,4.50
2022-10-18T07:22:17.191Z,4.63
2022-10-18T07:25:05.972Z,4.93
2022-10-18T07:27:53.168Z,4.37
2022-10-18T07:30:40.349Z,5.57
2022-10-18T07:33:30.809Z,5.07
2022-10-18T07:36:19.436Z,4.53
2022-10-18T07:39:06.305Z,5.67
2022-10-18T07:41:54.415Z,4.57
2022-10-18T07:44:41.298Z,3.50
2022-10-18T07:47:30.150Z,3.80
2022-10-18T07:50:25.557Z,3.97
2022-10-18T07:53:12.526Z,3.47
2022-10-18T07:56:02.328Z,3.77
2022-10-18T07:58:54.234Z,3.60
2022-10-18T08:01:41.314Z,3.37
2022-10-18T08:04:28.213Z,3.93
2022-10-18T08:07:15.170Z,3.73
2022-10-18T08:10:02.376Z,3.50
2022-10-18T08:12:49.522Z,3.17
2022-10-18T08:15:37.853Z,3.00
2022-10-18T08:18:25.747Z,3.07
2022-10-18T08:21:33.406Z,2.90
2022-10-18T08:24:20.549Z,3.00
2022-10-18T08:27:07.951Z,3.93
2022-10-18T08:29:55.201Z,5.80
2022-10-18T08:32:43.974Z,5.57
2022-10-18T08:35:31.577Z,6.17
2022-10-18T08:38:19.023Z,5.33
2022-10-18T08:41:34.034Z,5.83
2022-10-18T08:47:36.583Z,6.30
2022-10-18T08:50:27.335Z,4.43
2022-10-18T08:53:16.808Z,4.07
2022-10-18T08:56:11.009Z,5.27
2022-10-18T08:58:58.146Z,4.73
2022-10-18T09:01:53.727Z,3.80
2022-10-18T09:04:44.964Z,4.17
2022-10-18T09:08:02.302Z,3.70
2022-10-18T09:11:01.609Z,3.70
2022-10-18T09:14:21.041Z,3.77
2022-10-18T09:17:15.853Z,3.20
2022-10-18T09:20:11.034Z,3.57
2022-10-18T09:23:06.873Z,3.60
2022-10-18T09:26:01.271Z,3.57
2022-10-18T09:29:02.424Z,3.33
2022-10-18T09:31:56.373Z,2.70
2022-10-18T09:34:51.956Z,3.83
2022-10-18T09:37:38.835Z,3.37
2022-10-18T09:40:29.084Z,2.90
2022-10-18T09:43:19.198Z,2.83
2022-10-18T09:46:06.876Z,2.87
2022-10-18T09:48:57.711Z,3.07
2022-10-18T09:51:45.025Z,3.43
2022-10-18T09:54:34.058Z,3.70
2022-10-18T09:57:24.744Z,3.63
2022-10-18T10:03:27.810Z,3.13
2022-10-18T10:06:19.014Z,2.80
2022-10-18T10:09:08.870Z,3.20
2022-10-18T10:11:57.401Z,3.90
2022-10-18T10:17:58.695Z,2.93
2022-10-18T10:20:48.551Z,3.00
2022-10-18T10:23:40.149Z,2.73
2022-10-18T10:26:31.540Z,3.10
2022-10-18T10:29:48.086Z,3.20
2022-10-18T10:32:47.348Z,2.97
2022-10-18T10:35:53.090Z,3.57
2022-10-18T10:38:41.220Z,2.97
2022-10-18T10:41:28.951Z,2.87
2022-10-18T10:44:18.482Z,2.87
2022-10-18T10:47:06.230Z,2.60
2022-10-18T10:49:57.557Z,2.37
2022-10-18T10:52:49.368Z,2.50
2022-10-18T10:55:37.526Z,2.33
2022-10-18T10:58:24.986Z,2.47
2022-10-18T11:01:23.838Z,2.10
2022-10-18T11:04:28.827Z,2.65
2022-10-18T11:07:24.104Z,3.20
2022-10-18T11:10:15.367Z,2.80
2022-10-18T11:13:05.343Z,3.10
2022-10-18T11:15:54.715Z,3.20
2022-10-18T11:18:43.786Z,3.10
2022-10-18T11:21:33.049Z,3.00
2022-10-18T11:24:26.579Z,2.67
2022-10-18T11:27:18.170Z,2.70
2022-10-18T11:30:09.145Z,1.95
2022-10-18T11:33:01.302Z,2.53
2022-10-18T11:35:51.424Z,2.92
2022-10-18T11:38:41.991Z,2.50
2022-10-18T11:41:39.766Z,2.58
2022-10-18T11:44:34.661Z,3.15
2022-10-18T11:47:26.878Z,2.10
2022-10-18T11:50:20.763Z,2.60
2022-10-18T11:53:12.575Z,2.33
2022-10-18T11:56:04.851Z,2.40
2022-10-18T11:59:01.316Z,3.23
2022-10-18T12:01:54.689Z,2.50
2022-10-18T12:04:53.208Z,2.43
2022-10-18T12:07:55.192Z,2.53
2022-10-18T12:10:53.100Z,2.30
2022-10-18T12:13:52.014Z,2.80
2022-10-18T12:17:20.310Z,2.28
2022-10-18T12:19:51.786Z,1.80
2022-10-18T12:22:43.568Z,2.22
2022-10-18T12:25:31.666Z,2.10
2022-10-18T12:28:35.311Z,2.20
2022-10-18T12:31:25.072Z,2.23
2022-10-18T12:34:24.553Z,2.30
2022-10-18T12:37:27.644Z,2.30
2022-10-18T12:40:20.281Z,1.97
2022-10-18T12:43:12.013Z,2.10
2022-10-18T12:46:00.091Z,1.73
2022-10-18T12:48:52.381Z,1.77
2022-10-18T12:51:50.904Z,1.80
2022-10-18T12:54:38.779Z,2.33
2022-10-18T12:57:25.838Z,1.40
2022-10-18T13:00:42.184Z,2.43
2022-10-18T13:03:51.876Z,2.13
2022-10-18T13:06:57.509Z,2.40
2022-10-18T13:09:45.398Z,2.17
2022-10-18T13:12:46.957Z,2.40
2022-10-18T13:15:39.312Z,2.57
2022-10-18T13:18:29.316Z,2.30
2022-10-18T13:21:22.192Z,2.47
2022-10-18T13:24:26.974Z,2.07
2022-10-18T13:27:38.258Z,1.80
2022-10-18T13:30:43.361Z,1.57
2022-10-18T13:33:33.118Z,1.53
2022-10-18T13:36:26.639Z,1.90
2022-10-18T13:39:20.971Z,1.40
2022-10-18T13:42:22.356Z,1.10
2022-10-18T13:45:28.091Z,1.43
2022-10-18T13:48:33.949Z,1.47
2022-10-18T13:51:42.041Z,1.60
2022-10-18T13:54:48.820Z,1.87
2022-10-18T13:57:47.103Z,2.07
2022-10-18T14:00:42.318Z,1.60
2022-10-18T14:03:57.484Z,2.03
2022-10-18T14:06:46.958Z,1.90
2022-10-18T14:09:44.882Z,1.90
2022-10-18T14:12:34.258Z,2.50
2022-10-18T14:15:25.343Z,2.47
2022-10-18T14:18:15.096Z,2.60
2022-10-18T14:21:21.968Z,2.37
2022-10-18T14:24:17.082Z,2.10
2022-10-18T14:27:14.466Z,2.57
2022-10-18T14:30:19.339Z,2.20
2022-10-18T14:33:06.581Z,2.70
2022-10-18T14:36:00.780Z,2.10
2022-10-18T14:38:50.155Z,2.20
2022-10-18T14:41:39.111Z,2.50
2022-10-18T14:44:27.137Z,2.47
2022-10-18T14:47:16.047Z,2.67
2022-10-18T14:50:03.067Z,3.10
2022-10-18T14:52:50.270Z,3.60
2022-10-18T14:55:38.956Z,3.30
2022-10-18T14:58:27.352Z,2.50
2022-10-18T15:01:18.056Z,2.30
2022-10-18T15:04:10.573Z,2.63
2022-10-18T15:06:58.001Z,2.67
2022-10-18T15:09:46.088Z,2.73
2022-10-18T15:12:37.068Z,2.87
2022-10-18T15:15:31.068Z,2.00
2022-10-18T15:18:21.899Z,2.53
2022-10-18T15:21:09.847Z,2.33
2022-10-18T15:23:56.668Z,2.20
2022-10-18T15:26:45.210Z,2.80
2022-10-18T15:29:36.076Z,2.60
2022-10-18T15:32:27.050Z,2.70
2022-10-18T15:35:20.970Z,2.20
2022-10-18T15:38:16.646Z,2.80
2022-10-18T15:41:03.593Z,2.80
2022-10-18T15:43:50.529Z,2.97
2022-10-18T15:46:40.264Z,3.30
2022-10-18T15:49:52.149Z,2.83
2022-10-18T15:52:41.849Z,3.13
2022-10-18T15:55:48.462Z,4.10
2022-10-18T15:58:42.239Z,3.43
2022-10-18T16:01:33.423Z,3.13
2022-10-18T16:04:24.155Z,3.10
2022-10-18T16:07:12.323Z,3.00
2022-10-18T16:10:00.183Z,3.30
2022-10-18T16:12:47.426Z,2.40
2022-10-18T16:15:34.532Z,2.93
2022-10-18T16:18:21.738Z,2.73
2022-10-18T16:21:08.644Z,2.27
2022-10-18T16:23:55.985Z,2.87
2022-10-18T16:26:44.597Z,2.83
2022-10-18T16:29:32.955Z,2.97
2022-10-18T16:32:20.390Z,2.77
2022-10-18T16:35:07.929Z,3.10
2022-10-18T16:37:55.327Z,2.60
2022-10-18T16:40:42.463Z,2.80
2022-10-18T16:43:33.678Z,3.23
2022-10-18T16:46:21.868Z,2.80
2022-10-18T16:49:09.003Z,2.87
2022-10-18T16:51:56.535Z,2.80
2022-10-18T16:54:43.981Z,2.80
2022-10-18T16:57:31.232Z,2.70
2022-10-18T17:00:21.724Z,3.10
2022-10-18T17:03:08.905Z,3.07
2022-10-18T17:05:56.241Z,3.03
2022-10-18T17:08:43.426Z,3.10
2022-10-18T17:11:30.561Z,2.80
2022-10-18T17:14:18.133Z,2.60
2022-10-18T17:17:06.660Z,3.10
2022-10-18T17:19:54.372Z,3.60
2022-10-18T17:22:41.591Z,3.10
2022-10-18T17:25:28.732Z,2.93
2022-10-18T17:28:16.863Z,3.43
2022-10-18T17:31:03.648Z,3.20
2022-10-18T17:37:06.878Z,3.57
2022-10-18T17:39:53.575Z,3.43
2022-10-18T17:42:40.401Z,3.83
2022-10-18T17:45:27.455Z,3.20
2022-10-18T17:48:14.580Z,3.00
2022-10-18T17:51:07.638Z,3.40
2022-10-18T17:53:55.256Z,3.83
2022-10-18T17:56:42.443Z,3.40
2022-10-18T17:59:29.834Z,3.90
2022-10-18T18:02:16.896Z,3.87
2022-10-18T18:05:04.332Z,4.87
2022-10-18T18:07:52.370Z,4.10
2022-10-18T18:10:39.664Z,4.03
2022-10-18T18:13:26.691Z,3.83
2022-10-18T18:16:14.971Z,3.77
2022-10-18T18:19:04.086Z,3.90
2022-10-18T18:21:55.032Z,4.30
2022-10-18T18:24:43.293Z,4.50
2022-10-18T18:27:30.076Z,5.13
2022-10-18T18:30:18.139Z,4.77
2022-10-18T18:33:05.450Z,4.67
2022-10-18T18:35:56.294Z,5.17
2022-10-18T18:38:43.542Z,6.03
2022-10-18T18:41:31.844Z,6.00
2022-10-18T18:44:20.111Z,5.53
2022-10-18T18:47:12.250Z,5.93
2022-10-18T18:49:59.941Z,4.90
2022-10-18T18:52:46.952Z,4.37
2022-10-18T18:55:34.512Z,5.30
2022-10-18T18:58:23.571Z,5.43
2022-10-18T19:01:11.334Z,5.47
2022-10-18T19:03:59.122Z,5.20
2022-10-18T19:06:46.854Z,6.10
2022-10-18T19:09:37.792Z,6.07
2022-10-18T19:12:25.504Z,5.57
2022-10-18T19:15:13.572Z,5.63
2022-10-18T19:18:00.939Z,5.30
2022-10-18T19:20:48.252Z,5.33
2022-10-18T19:23:35.092Z,5.70
2022-10-18T19:26:26.075Z,5.40
2022-10-18T19:29:14.971Z,5.97
2022-10-18T19:32:03.993Z,6.80
2022-10-18T19:34:51.461Z,6.07
2022-10-18T19:37:38.676Z,6.13
2022-10-18T19:40:25.655Z,5.70
2022-10-18T19:43:12.706Z,6.20
2022-10-18T19:46:03.202Z,6.43
2022-10-18T19:48:54.029Z,6.23
2022-10-18T19:51:41.086Z,6.27
2022-10-18T19:54:28.283Z,6.10
2022-10-18T19:57:15.164Z,6.13
2022-10-18T20:00:03.538Z,6.33
2022-10-18T20:02:59.067Z,7.80
2022-10-18T20:05:47.555Z,7.10
2022-10-18T20:08:35.657Z,6.50
2022-10-18T20:11:23.933Z,6.37
2022-10-18T20:14:11.331Z,6.73
2022-10-18T20:16:58.233Z,6.63
2022-10-18T20:19:45.352Z,6.80
2022-10-18T20:22:34.659Z,6.70
2022-10-18T20:25:41.181Z,7.40
2022-10-18T20:28:28.473Z,7.97
2022-10-18T20:31:16.935Z,7.80
2022-10-18T20:34:05.670Z,7.47
2022-10-18T20:36:52.809Z,7.20
2022-10-18T20:39:41.149Z,6.77
2022-10-18T20:42:28.475Z,6.33
2022-10-18T20:45:15.672Z,7.40
2022-10-18T20:48:02.366Z,7.30
2022-10-18T20:50:49.101Z,6.93
2022-10-18T20:53:36.326Z,7.20
2022-10-18T20:56:26.650Z,7.20
2022-10-18T20:59:13.915Z,7.43
2022-10-18T21:02:00.939Z,8.60
2022-10-18T21:04:47.999Z,7.63
2022-10-18T21:07:35.252Z,8.00
2022-10-18T21:10:22.605Z,8.47
2022-10-18T21:13:11.110Z,7.37
2022-10-18T21:15:58.171Z,7.60
2022-10-18T21:18:45.065Z,7.27
2022-10-18T21:21:31.850Z,7.07
2022-10-18T21:24:19.927Z,7.20
2022-10-18T21:27:07.065Z,6.70
2022-10-18T21:29:55.508Z,6.73
2022-10-18T21:32:42.228Z,6.57
2022-10-18T21:35:29.291Z,7.00
2022-10-18T21:38:16.510Z,5.93
2022-10-18T21:41:03.564Z,7.13
2022-10-18T21:43:51.831Z,7.10
2022-10-18T21:46:42.788Z,6.50
2022-10-18T21:49:30.347Z,6.97
2022-10-18T21:52:17.473Z,6.30
2022-10-18T21:55:06.986Z,5.93
2022-10-18T21:57:54.252Z,6.07
2022-10-18T22:00:41.831Z,6.43
2022-10-18T22:03:29.832Z,6.63
2022-10-18T22:06:17.575Z,6.60
2022-10-18T22:09:05.851Z,6.57
2022-10-18T22:11:54.518Z,6.43
2022-10-18T22:14:41.531Z,6.27
2022-10-18T22:17:28.576Z,6.60
2022-10-18T22:20:16.983Z,6.87
2022-10-18T22:23:04.055Z,7.07
2022-10-18T22:25:51.115Z,6.50
2022-10-18T22:28:37.896Z,6.43
2022-10-18T22:31:25.922Z,6.43
2022-10-18T22:34:13.793Z,6.63
2022-10-18T22:37:02.704Z,6.77
2022-10-18T22:39:49.884Z,6.30
2022-10-18T22:42:38.088Z,6.27
2022-10-18T22:45:25.462Z,6.43
2022-10-18T22:48:12.187Z,6.20
2022-10-18T22:50:59.186Z,6.50
2022-10-18T22:53:47.501Z,6.30
2022-10-18T22:56:34.590Z,5.80
2022-10-18T22:59:21.791Z,6.50
2022-10-18T23:02:34.897Z,5.83
2022-10-18T23:05:21.756Z,6.17
2022-10-18T23:08:09.049Z,7.10
2022-10-18T23:10:58.800Z,6.60
2022-10-18T23:13:45.572Z,6.53
2022-10-18T23:16:32.616Z,6.07
2022-10-18T23:19:19.828Z,5.93
2022-10-18T23:22:06.629Z,6.20
2022-10-18T23:24:53.733Z,6.40
2022-10-18T23:30:30.664Z,5.53
2022-10-18T23:33:17.633Z,5.90
2022-10-18T23:36:05.138Z,5.70
2022-10-18T23:38:52.328Z,5.83
2022-10-18T23:41:39.281Z,6.13
2022-10-18T23:44:27.281Z,5.87
2022-10-18T23:47:14.367Z,6.37
2022-10-18T23:50:01.399Z,6.60
2022-10-18T23:52:48.519Z,6.30
2022-10-18T23:55:35.513Z,5.87
2022-10-18T23:58:22.532Z,5.77
